sensor_id;sensor_type;location;lat;lon;timestamp;temperature;humidity
44517;DHT22;30223;17.182;-96.766;2023-02-28T00:01:12;27.80;47.50
44517;DHT22;30223;17.182;-96.766;2023-02-28T00:03:39;27.80;47.50
44517;DHT22;30223;17.182;-96.766;2023-02-28T00:06:07;27.80;47.50
44517;DHT22;30223;17.182;-96.766;2023-02-28T00:08:36;27.80;47.60
44517;DHT22;30223;17.182;-96.766;2023-02-28T00:11:04;27.70;47.50
44517;DHT22;30223;17.182;-96.766;2023-02-28T00:13:32;27.80;47.60
44517;DHT22;30223;17.182;-96.766;2023-02-28T00:16:04;27.70;47.50
44517;DHT22;30223;17.182;-96.766;2023-02-28T00:18:31;27.80;47.60
44517;DHT22;30223;17.182;-96.766;2023-02-28T00:20:58;27.80;48.10
44517;DHT22;30223;17.182;-96.766;2023-02-28T00:23:26;27.70;47.60
44517;DHT22;30223;17.182;-96.766;2023-02-28T00:25:53;27.70;47.60
44517;DHT22;30223;17.182;-96.766;2023-02-28T00:28:20;27.70;47.60
44517;DHT22;30223;17.182;-96.766;2023-02-28T00:30:47;27.70;47.60
44517;DHT22;30223;17.182;-96.766;2023-02-28T00:33:14;27.70;47.60
44517;DHT22;30223;17.182;-96.766;2023-02-28T00:35:41;27.70;47.70
44517;DHT22;30223;17.182;-96.766;2023-02-28T00:38:07;27.70;47.70
44517;DHT22;30223;17.182;-96.766;2023-02-28T00:40:34;27.70;47.70
44517;DHT22;30223;17.182;-96.766;2023-02-28T00:43:01;27.70;47.80
44517;DHT22;30223;17.182;-96.766;2023-02-28T00:45:29;27.70;48.40
44517;DHT22;30223;17.182;-96.766;2023-02-28T00:47:55;27.70;47.80
44517;DHT22;30223;17.182;-96.766;2023-02-28T00:50:22;27.70;47.80
44517;DHT22;30223;17.182;-96.766;2023-02-28T00:52:49;27.70;47.80
44517;DHT22;30223;17.182;-96.766;2023-02-28T00:55:15;27.70;47.80
44517;DHT22;30223;17.182;-96.766;2023-02-28T00:57:42;27.70;47.90
44517;DHT22;30223;17.182;-96.766;2023-02-28T01:00:09;27.70;47.90
44517;DHT22;30223;17.182;-96.766;2023-02-28T01:02:37;27.70;47.90
44517;DHT22;30223;17.182;-96.766;2023-02-28T01:05:03;27.60;47.90
44517;DHT22;30223;17.182;-96.766;2023-02-28T01:07:30;27.60;47.90
44517;DHT22;30223;17.182;-96.766;2023-02-28T01:10:00;27.60;47.90
44517;DHT22;30223;17.182;-96.766;2023-02-28T01:12:27;27.60;48.00
44517;DHT22;30223;17.182;-96.766;2023-02-28T01:14:53;27.60;48.00
44517;DHT22;30223;17.182;-96.766;2023-02-28T01:17:20;27.60;48.00
44517;DHT22;30223;17.182;-96.766;2023-02-28T01:19:46;27.60;48.00
44517;DHT22;30223;17.182;-96.766;2023-02-28T01:22:13;27.60;48.10
44517;DHT22;30223;17.182;-96.766;2023-02-28T01:24:40;27.60;48.10
44517;DHT22;30223;17.182;-96.766;2023-02-28T01:27:06;27.60;48.10
44517;DHT22;30223;17.182;-96.766;2023-02-28T01:29:33;27.50;48.10
44517;DHT22;30223;17.182;-96.766;2023-02-28T01:32:02;27.50;48.20
44517;DHT22;30223;17.182;-96.766;2023-02-28T01:34:28;27.50;48.20
44517;DHT22;30223;17.182;-96.766;2023-02-28T01:36:55;27.50;48.20
44517;DHT22;30223;17.182;-96.766;2023-02-28T01:39:25;27.50;48.20
44517;DHT22;30223;17.182;-96.766;2023-02-28T01:41:52;27.50;48.20
44517;DHT22;30223;17.182;-96.766;2023-02-28T01:47:23;27.50;48.20
44517;DHT22;30223;17.182;-96.766;2023-02-28T01:49:51;27.40;48.20
44517;DHT22;30223;17.182;-96.766;2023-02-28T01:52:18;27.40;48.20
44517;DHT22;30223;17.182;-96.766;2023-02-28T01:54:52;27.40;48.20
44517;DHT22;30223;17.182;-96.766;2023-02-28T01:57:25;27.40;48.20
44517;DHT22;30223;17.182;-96.766;2023-02-28T01:59:57;27.40;48.20
44517;DHT22;30223;17.182;-96.766;2023-02-28T02:02:27;27.40;48.20
44517;DHT22;30223;17.182;-96.766;2023-02-28T02:05:10;27.40;48.30
44517;DHT22;30223;17.182;-96.766;2023-02-28T02:07:43;27.40;48.20
44517;DHT22;30223;17.182;-96.766;2023-02-28T02:10:13;27.30;48.10
44517;DHT22;30223;17.182;-96.766;2023-02-28T02:16:02;27.30;48.80
44517;DHT22;30223;17.182;-96.766;2023-02-28T02:41:53;27.20;48.30
44517;DHT22;30223;17.182;-96.766;2023-02-28T02:44:49;27.20;48.30
44517;DHT22;30223;17.182;-96.766;2023-02-28T02:47:19;27.20;48.30
44517;DHT22;30223;17.182;-96.766;2023-02-28T02:49:52;27.20;48.40
44517;DHT22;30223;17.182;-96.766;2023-02-28T02:52:23;27.10;47.20
44517;DHT22;30223;17.182;-96.766;2023-02-28T02:55:02;27.00;46.20
44517;DHT22;30223;17.182;-96.766;2023-02-28T02:57:41;26.90;45.80
44517;DHT22;30223;17.182;-96.766;2023-02-28T03:00:10;26.90;46.00
44517;DHT22;30223;17.182;-96.766;2023-02-28T03:02:38;26.80;45.70
44517;DHT22;30223;17.182;-96.766;2023-02-28T03:05:13;26.70;45.50
44517;DHT22;30223;17.182;-96.766;2023-02-28T03:07:41;26.70;45.50
44517;DHT22;30223;17.182;-96.766;2023-02-28T03:18:54;26.50;45.50
44517;DHT22;30223;17.182;-96.766;2023-02-28T03:21:26;26.50;45.60
44517;DHT22;30223;17.182;-96.766;2023-02-28T03:24:03;26.50;45.60
44517;DHT22;30223;17.182;-96.766;2023-02-28T03:26:31;26.40;45.50
44517;DHT22;30223;17.182;-96.766;2023-02-28T03:31:58;26.40;45.20
44517;DHT22;30223;17.182;-96.766;2023-02-28T03:34:33;26.30;45.20
44517;DHT22;30223;17.182;-96.766;2023-02-28T03:37:12;26.30;44.90
44517;DHT22;30223;17.182;-96.766;2023-02-28T03:39:45;26.30;44.60
44517;DHT22;30223;17.182;-96.766;2023-02-28T03:42:18;26.30;44.20
44517;DHT22;30223;17.182;-96.766;2023-02-28T03:45:04;26.20;42.20
44517;DHT22;30223;17.182;-96.766;2023-02-28T03:47:51;26.20;41.70
44517;DHT22;30223;17.182;-96.766;2023-02-28T03:50:23;26.20;41.00
44517;DHT22;30223;17.182;-96.766;2023-02-28T03:52:56;26.10;39.60
44517;DHT22;30223;17.182;-96.766;2023-02-28T03:55:30;26.10;38.40
44517;DHT22;30223;17.182;-96.766;2023-02-28T03:58:08;26.00;37.80
44517;DHT22;30223;17.182;-96.766;2023-02-28T04:00:49;26.00;38.40
44517;DHT22;30223;17.182;-96.766;2023-02-28T04:03:19;26.10;36.40
44517;DHT22;30223;17.182;-96.766;2023-02-28T04:05:51;26.00;34.60
44517;DHT22;30223;17.182;-96.766;2023-02-28T04:08:20;26.00;35.00
44517;DHT22;30223;17.182;-96.766;2023-02-28T04:10:53;26.00;35.00
44517;DHT22;30223;17.182;-96.766;2023-02-28T04:13:21;26.00;35.20
44517;DHT22;30223;17.182;-96.766;2023-02-28T04:15:48;26.10;35.50
44517;DHT22;30223;17.182;-96.766;2023-02-28T04:18:14;26.20;35.50
44517;DHT22;30223;17.182;-96.766;2023-02-28T04:20:41;26.30;34.40
44517;DHT22;30223;17.182;-96.766;2023-02-28T04:23:08;26.20;34.40
44517;DHT22;30223;17.182;-96.766;2023-02-28T04:25:34;26.20;34.30
44517;DHT22;30223;17.182;-96.766;2023-02-28T04:28:01;26.20;34.50
44517;DHT22;30223;17.182;-96.766;2023-02-28T04:30:27;26.10;34.40
44517;DHT22;30223;17.182;-96.766;2023-02-28T04:32:55;26.10;34.40
44517;DHT22;30223;17.182;-96.766;2023-02-28T04:35:22;26.10;34.10
44517;DHT22;30223;17.182;-96.766;2023-02-28T04:37:49;26.00;34.40
44517;DHT22;30223;17.182;-96.766;2023-02-28T04:40:15;26.00;34.30
44517;DHT22;30223;17.182;-96.766;2023-02-28T04:42:42;25.90;34.90
44517;DHT22;30223;17.182;-96.766;2023-02-28T04:45:09;25.90;34.90
44517;DHT22;30223;17.182;-96.766;2023-02-28T04:47:36;25.80;35.10
44517;DHT22;30223;17.182;-96.766;2023-02-28T04:50:03;25.80;35.20
44517;DHT22;30223;17.182;-96.766;2023-02-28T04:52:30;25.70;35.30
44517;DHT22;30223;17.182;-96.766;2023-02-28T04:54:59;25.80;36.60
44517;DHT22;30223;17.182;-96.766;2023-02-28T04:57:26;25.70;35.40
44517;DHT22;30223;17.182;-96.766;2023-02-28T04:59:53;25.70;35.30
44517;DHT22;30223;17.182;-96.766;2023-02-28T05:02:19;25.70;35.10
44517;DHT22;30223;17.182;-96.766;2023-02-28T05:04:47;25.60;34.20
44517;DHT22;30223;17.182;-96.766;2023-02-28T05:07:13;25.60;34.60
44517;DHT22;30223;17.182;-96.766;2023-02-28T05:09:40;25.60;34.60
44517;DHT22;30223;17.182;-96.766;2023-02-28T05:12:07;25.60;34.80
44517;DHT22;30223;17.182;-96.766;2023-02-28T05:14:34;25.50;35.00
44517;DHT22;30223;17.182;-96.766;2023-02-28T05:17:02;25.50;34.40
44517;DHT22;30223;17.182;-96.766;2023-02-28T05:19:29;25.40;34.30
44517;DHT22;30223;17.182;-96.766;2023-02-28T05:21:55;25.40;34.50
44517;DHT22;30223;17.182;-96.766;2023-02-28T05:24:22;25.40;34.90
44517;DHT22;30223;17.182;-96.766;2023-02-28T05:26:51;25.30;35.20
44517;DHT22;30223;17.182;-96.766;2023-02-28T05:29:20;25.40;35.50
44517;DHT22;30223;17.182;-96.766;2023-02-28T05:31:47;25.30;35.40
44517;DHT22;30223;17.182;-96.766;2023-02-28T05:34:14;25.30;35.40
44517;DHT22;30223;17.182;-96.766;2023-02-28T05:36:41;25.30;35.40
44517;DHT22;30223;17.182;-96.766;2023-02-28T05:39:08;25.30;35.70
44517;DHT22;30223;17.182;-96.766;2023-02-28T05:41:40;25.30;35.50
44517;DHT22;30223;17.182;-96.766;2023-02-28T05:44:07;25.20;35.50
44517;DHT22;30223;17.182;-96.766;2023-02-28T05:46:34;25.20;35.40
44517;DHT22;30223;17.182;-96.766;2023-02-28T05:49:01;25.20;35.30
44517;DHT22;30223;17.182;-96.766;2023-02-28T05:51:28;25.10;34.90
44517;DHT22;30223;17.182;-96.766;2023-02-28T05:53:57;25.10;35.30
44517;DHT22;30223;17.182;-96.766;2023-02-28T05:56:24;25.10;35.70
44517;DHT22;30223;17.182;-96.766;2023-02-28T05:58:51;25.20;36.10
44517;DHT22;30223;17.182;-96.766;2023-02-28T06:01:37;25.20;36.50
44517;DHT22;30223;17.182;-96.766;2023-02-28T06:04:06;25.20;36.90
44517;DHT22;30223;17.182;-96.766;2023-02-28T06:06:33;25.10;37.00
44517;DHT22;30223;17.182;-96.766;2023-02-28T06:09:04;25.20;37.10
44517;DHT22;30223;17.182;-96.766;2023-02-28T06:11:31;25.10;37.20
44517;DHT22;30223;17.182;-96.766;2023-02-28T06:13:59;25.20;37.30
44517;DHT22;30223;17.182;-96.766;2023-02-28T06:16:28;25.10;37.30
44517;DHT22;30223;17.182;-96.766;2023-02-28T06:18:56;25.10;37.40
44517;DHT22;30223;17.182;-96.766;2023-02-28T06:21:24;25.10;37.50
44517;DHT22;30223;17.182;-96.766;2023-02-28T06:23:50;25.10;37.60
44517;DHT22;30223;17.182;-96.766;2023-02-28T06:26:17;25.20;37.80
44517;DHT22;30223;17.182;-96.766;2023-02-28T06:28:44;25.10;37.70
44517;DHT22;30223;17.182;-96.766;2023-02-28T06:31:13;25.10;37.80
44517;DHT22;30223;17.182;-96.766;2023-02-28T06:33:40;25.10;37.90
44517;DHT22;30223;17.182;-96.766;2023-02-28T06:36:08;25.10;38.00
44517;DHT22;30223;17.182;-96.766;2023-02-28T06:38:35;25.10;38.10
44517;DHT22;30223;17.182;-96.766;2023-02-28T06:41:03;25.10;38.10
44517;DHT22;30223;17.182;-96.766;2023-02-28T06:43:32;25.10;38.90
44517;DHT22;30223;17.182;-96.766;2023-02-28T06:46:01;25.10;38.30
44517;DHT22;30223;17.182;-96.766;2023-02-28T06:48:28;25.10;38.40
44517;DHT22;30223;17.182;-96.766;2023-02-28T06:51:12;25.10;38.40
44517;DHT22;30223;17.182;-96.766;2023-02-28T06:53:40;25.10;38.50
44517;DHT22;30223;17.182;-96.766;2023-02-28T06:56:12;25.10;38.60
44517;DHT22;30223;17.182;-96.766;2023-02-28T06:58:39;25.00;38.60
44517;DHT22;30223;17.182;-96.766;2023-02-28T07:01:07;25.10;38.70
44517;DHT22;30223;17.182;-96.766;2023-02-28T07:03:35;25.00;38.80
44517;DHT22;30223;17.182;-96.766;2023-02-28T07:06:02;25.00;38.80
44517;DHT22;30223;17.182;-96.766;2023-02-28T07:08:30;25.00;38.80
44517;DHT22;30223;17.182;-96.766;2023-02-28T07:10:58;25.00;38.90
44517;DHT22;30223;17.182;-96.766;2023-02-28T07:13:25;25.00;39.00
44517;DHT22;30223;17.182;-96.766;2023-02-28T07:16:03;25.00;39.00
44517;DHT22;30223;17.182;-96.766;2023-02-28T07:18:31;25.00;39.10
44517;DHT22;30223;17.182;-96.766;2023-02-28T07:20:58;25.00;39.10
44517;DHT22;30223;17.182;-96.766;2023-02-28T07:23:24;25.00;39.20
44517;DHT22;30223;17.182;-96.766;2023-02-28T07:25:51;25.00;39.30
44517;DHT22;30223;17.182;-96.766;2023-02-28T07:28:18;25.00;39.40
44517;DHT22;30223;17.182;-96.766;2023-02-28T07:30:45;24.90;39.40
44517;DHT22;30223;17.182;-96.766;2023-02-28T07:33:11;24.90;39.40
44517;DHT22;30223;17.182;-96.766;2023-02-28T07:35:38;24.90;39.50
44517;DHT22;30223;17.182;-96.766;2023-02-28T07:38:04;24.90;39.60
44517;DHT22;30223;17.182;-96.766;2023-02-28T07:40:34;24.90;39.60
44517;DHT22;30223;17.182;-96.766;2023-02-28T07:43:01;24.90;39.70
44517;DHT22;30223;17.182;-96.766;2023-02-28T07:45:29;24.80;39.70
44517;DHT22;30223;17.182;-96.766;2023-02-28T07:47:57;24.80;39.70
44517;DHT22;30223;17.182;-96.766;2023-02-28T07:50:24;24.80;39.70
44517;DHT22;30223;17.182;-96.766;2023-02-28T07:52:51;24.80;39.80
44517;DHT22;30223;17.182;-96.766;2023-02-28T07:55:17;24.80;39.80
44517;DHT22;30223;17.182;-96.766;2023-02-28T07:57:44;24.80;39.80
44517;DHT22;30223;17.182;-96.766;2023-02-28T08:00:11;24.70;39.80
44517;DHT22;30223;17.182;-96.766;2023-02-28T08:02:39;24.70;39.90
44517;DHT22;30223;17.182;-96.766;2023-02-28T08:05:06;24.70;40.00
44517;DHT22;30223;17.182;-96.766;2023-02-28T08:07:33;24.70;40.00
44517;DHT22;30223;17.182;-96.766;2023-02-28T08:10:00;24.60;40.00
44517;DHT22;30223;17.182;-96.766;2023-02-28T08:12:27;24.60;40.10
44517;DHT22;30223;17.182;-96.766;2023-02-28T08:14:53;24.70;40.20
44517;DHT22;30223;17.182;-96.766;2023-02-28T08:17:20;24.70;40.20
44517;DHT22;30223;17.182;-96.766;2023-02-28T08:19:46;24.60;40.20
44517;DHT22;30223;17.182;-96.766;2023-02-28T08:22:13;24.60;40.30
44517;DHT22;30223;17.182;-96.766;2023-02-28T08:24:41;24.50;40.20
44517;DHT22;30223;17.182;-96.766;2023-02-28T08:27:09;24.60;40.40
44517;DHT22;30223;17.182;-96.766;2023-02-28T08:29:39;24.60;40.70
44517;DHT22;30223;17.182;-96.766;2023-02-28T08:32:06;24.50;40.40
44517;DHT22;30223;17.182;-96.766;2023-02-28T08:34:33;24.50;40.50
44517;DHT22;30223;17.182;-96.766;2023-02-28T08:37:00;24.50;40.50
44517;DHT22;30223;17.182;-96.766;2023-02-28T08:39:26;24.50;40.60
44517;DHT22;30223;17.182;-96.766;2023-02-28T08:41:53;24.50;40.60
44517;DHT22;30223;17.182;-96.766;2023-02-28T08:44:20;24.50;40.70
44517;DHT22;30223;17.182;-96.766;2023-02-28T08:46:46;24.50;40.70
44517;DHT22;30223;17.182;-96.766;2023-02-28T08:49:16;24.40;40.70
44517;DHT22;30223;17.182;-96.766;2023-02-28T08:51:43;24.40;40.80
44517;DHT22;30223;17.182;-96.766;2023-02-28T08:54:09;24.40;40.80
44517;DHT22;30223;17.182;-96.766;2023-02-28T08:56:38;24.40;40.90
44517;DHT22;30223;17.182;-96.766;2023-02-28T08:59:05;24.30;40.80
44517;DHT22;30223;17.182;-96.766;2023-02-28T09:01:32;24.30;40.90
44517;DHT22;30223;17.182;-96.766;2023-02-28T09:03:58;24.30;41.00
44517;DHT22;30223;17.182;-96.766;2023-02-28T09:06:29;24.30;41.00
44517;DHT22;30223;17.182;-96.766;2023-02-28T09:08:59;24.30;41.00
44517;DHT22;30223;17.182;-96.766;2023-02-28T09:11:27;24.30;41.10
44517;DHT22;30223;17.182;-96.766;2023-02-28T09:13:54;24.30;41.10
44517;DHT22;30223;17.182;-96.766;2023-02-28T09:16:24;24.30;41.10
44517;DHT22;30223;17.182;-96.766;2023-02-28T09:18:51;24.20;41.00
44517;DHT22;30223;17.182;-96.766;2023-02-28T09:21:19;24.20;41.10
44517;DHT22;30223;17.182;-96.766;2023-02-28T09:23:48;24.20;41.10
44517;DHT22;30223;17.182;-96.766;2023-02-28T09:26:17;24.20;41.10
44517;DHT22;30223;17.182;-96.766;2023-02-28T09:28:44;24.20;41.20
44517;DHT22;30223;17.182;-96.766;2023-02-28T09:31:13;24.20;41.80
44517;DHT22;30223;17.182;-96.766;2023-02-28T09:33:40;24.20;41.20
44517;DHT22;30223;17.182;-96.766;2023-02-28T09:36:07;24.10;41.10
44517;DHT22;30223;17.182;-96.766;2023-02-28T09:38:34;24.10;41.20
44517;DHT22;30223;17.182;-96.766;2023-02-28T09:41:04;24.10;41.30
44517;DHT22;30223;17.182;-96.766;2023-02-28T09:43:39;24.10;41.30
44517;DHT22;30223;17.182;-96.766;2023-02-28T09:46:26;24.10;41.30
44517;DHT22;30223;17.182;-96.766;2023-02-28T09:48:54;24.10;41.30
44517;DHT22;30223;17.182;-96.766;2023-02-28T09:54:23;24.00;41.40
44517;DHT22;30223;17.182;-96.766;2023-02-28T09:56:51;24.00;41.30
44517;DHT22;30223;17.182;-96.766;2023-02-28T10:02:19;24.00;41.40
44517;DHT22;30223;17.182;-96.766;2023-02-28T10:04:59;23.90;41.40
44517;DHT22;30223;17.182;-96.766;2023-02-28T10:07:50;23.90;41.40
44517;DHT22;30223;17.182;-96.766;2023-02-28T10:10:40;23.90;41.40
44517;DHT22;30223;17.182;-96.766;2023-02-28T10:13:34;23.90;41.40
44517;DHT22;30223;17.182;-96.766;2023-02-28T10:16:18;23.90;41.40
44517;DHT22;30223;17.182;-96.766;2023-02-28T10:18:55;23.90;41.50
44517;DHT22;30223;17.182;-96.766;2023-02-28T10:24:45;23.80;41.50
44517;DHT22;30223;17.182;-96.766;2023-02-28T10:27:22;23.80;41.40
44517;DHT22;30223;17.182;-96.766;2023-02-28T10:30:03;23.80;41.50
44517;DHT22;30223;17.182;-96.766;2023-02-28T10:32:35;23.80;41.50
44517;DHT22;30223;17.182;-96.766;2023-02-28T10:35:21;23.80;41.50
44517;DHT22;30223;17.182;-96.766;2023-02-28T10:37:51;23.80;41.60
44517;DHT22;30223;17.182;-96.766;2023-02-28T10:45:30;23.70;41.50
44517;DHT22;30223;17.182;-96.766;2023-02-28T10:48:01;23.70;41.50
44517;DHT22;30223;17.182;-96.766;2023-02-28T10:58:27;23.60;41.50
44517;DHT22;30223;17.182;-96.766;2023-02-28T11:00:54;23.60;41.50
44517;DHT22;30223;17.182;-96.766;2023-02-28T11:03:33;23.50;41.50
44517;DHT22;30223;17.182;-96.766;2023-02-28T11:06:06;23.50;41.60
44517;DHT22;30223;17.182;-96.766;2023-02-28T11:08:34;23.50;41.60
44517;DHT22;30223;17.182;-96.766;2023-02-28T11:11:04;23.50;41.70
44517;DHT22;30223;17.182;-96.766;2023-02-28T11:13:36;23.50;41.70
44517;DHT22;30223;17.182;-96.766;2023-02-28T11:16:09;23.50;41.70
44517;DHT22;30223;17.182;-96.766;2023-02-28T11:21:15;23.40;41.60
44517;DHT22;30223;17.182;-96.766;2023-02-28T11:23:43;23.40;42.30
44517;DHT22;30223;17.182;-96.766;2023-02-28T11:26:10;23.40;41.70
44517;DHT22;30223;17.182;-96.766;2023-02-28T11:28:41;23.40;41.80
44517;DHT22;30223;17.182;-96.766;2023-02-28T11:31:18;23.40;41.70
44517;DHT22;30223;17.182;-96.766;2023-02-28T11:33:53;23.40;41.70
44517;DHT22;30223;17.182;-96.766;2023-02-28T11:36:26;23.30;41.70
44517;DHT22;30223;17.182;-96.766;2023-02-28T11:39:12;23.30;41.70
44517;DHT22;30223;17.182;-96.766;2023-02-28T11:52:55;23.20;41.80
44517;DHT22;30223;17.182;-96.766;2023-02-28T11:55:44;23.20;41.80
44517;DHT22;30223;17.182;-96.766;2023-02-28T11:58:29;23.20;41.80
44517;DHT22;30223;17.182;-96.766;2023-02-28T12:04:11;23.10;41.80
44517;DHT22;30223;17.182;-96.766;2023-02-28T12:07:09;23.10;41.80
44517;DHT22;30223;17.182;-96.766;2023-02-28T12:10:42;23.10;41.80
44517;DHT22;30223;17.182;-96.766;2023-02-28T12:12:51;23.00;41.80
44517;DHT22;30223;17.182;-96.766;2023-02-28T12:18:17;23.00;41.80
44517;DHT22;30223;17.182;-96.766;2023-02-28T12:24:05;23.00;41.90
44517;DHT22;30223;17.182;-96.766;2023-02-28T12:26:45;22.90;41.80
44517;DHT22;30223;17.182;-96.766;2023-02-28T12:29:34;22.90;41.90
44517;DHT22;30223;17.182;-96.766;2023-02-28T12:32:09;22.90;41.90
44517;DHT22;30223;17.182;-96.766;2023-02-28T12:34:43;22.90;41.90
44517;DHT22;30223;17.182;-96.766;2023-02-28T12:37:16;22.80;41.90
44517;DHT22;30223;17.182;-96.766;2023-02-28T12:39:50;22.80;41.90
44517;DHT22;30223;17.182;-96.766;2023-02-28T12:42:31;22.80;41.90
44517;DHT22;30223;17.182;-96.766;2023-02-28T12:45:10;22.80;42.00
44517;DHT22;30223;17.182;-96.766;2023-02-28T12:47:42;22.80;42.00
44517;DHT22;30223;17.182;-96.766;2023-02-28T12:50:11;22.70;41.90
44517;DHT22;30223;17.182;-96.766;2023-02-28T12:58:29;22.70;42.00
44517;DHT22;30223;17.182;-96.766;2023-02-28T13:09:38;22.60;42.10
44517;DHT22;30223;17.182;-96.766;2023-02-28T13:12:14;22.50;42.10
44517;DHT22;30223;17.182;-96.766;2023-02-28T13:14:41;22.60;42.30
44517;DHT22;30223;17.182;-96.766;2023-02-28T13:19:57;22.50;42.20
44517;DHT22;30223;17.182;-96.766;2023-02-28T13:22:45;22.50;42.20
44517;DHT22;30223;17.182;-96.766;2023-02-28T13:28:06;22.40;42.20
44517;DHT22;30223;17.182;-96.766;2023-02-28T13:33:26;22.40;42.30
44517;DHT22;30223;17.182;-96.766;2023-02-28T13:38:55;22.30;42.30
44517;DHT22;30223;17.182;-96.766;2023-02-28T13:44:15;22.30;42.40
44517;DHT22;30223;17.182;-96.766;2023-02-28T13:49:25;22.30;42.40
44517;DHT22;30223;17.182;-96.766;2023-02-28T13:57:57;22.30;42.50
44517;DHT22;30223;17.182;-96.766;2023-02-28T14:06:34;22.20;42.40
44517;DHT22;30223;17.182;-96.766;2023-02-28T14:09:18;22.20;42.50
44517;DHT22;30223;17.182;-96.766;2023-02-28T14:11:49;22.20;42.50
44517;DHT22;30223;17.182;-96.766;2023-02-28T14:17:06;22.20;42.60
44517;DHT22;30223;17.182;-96.766;2023-02-28T14:19:40;22.10;42.50
44517;DHT22;30223;17.182;-96.766;2023-02-28T14:33:48;22.20;42.60
44517;DHT22;30223;17.182;-96.766;2023-02-28T14:36:37;22.10;42.60
44517;DHT22;30223;17.182;-96.766;2023-02-28T14:39:07;22.20;42.70
44517;DHT22;30223;17.182;-96.766;2023-02-28T14:41:40;22.20;42.70
44517;DHT22;30223;17.182;-96.766;2023-02-28T14:44:33;22.10;42.70
44517;DHT22;30223;17.182;-96.766;2023-02-28T14:47:03;22.10;42.70
44517;DHT22;30223;17.182;-96.766;2023-02-28T14:49:43;22.20;42.80
44517;DHT22;30223;17.182;-96.766;2023-02-28T14:52:23;22.10;42.80
44517;DHT22;30223;17.182;-96.766;2023-02-28T14:55:01;22.10;42.80
44517;DHT22;30223;17.182;-96.766;2023-02-28T14:57:39;22.10;42.80
44517;DHT22;30223;17.182;-96.766;2023-02-28T15:00:30;22.10;42.80
44517;DHT22;30223;17.182;-96.766;2023-02-28T15:02:59;22.10;42.80
44517;DHT22;30223;17.182;-96.766;2023-02-28T15:05:31;22.20;42.90
44517;DHT22;30223;17.182;-96.766;2023-02-28T15:08:17;22.20;43.00
44517;DHT22;30223;17.182;-96.766;2023-02-28T15:10:53;22.20;43.00
44517;DHT22;30223;17.182;-96.766;2023-02-28T15:13:20;22.20;43.00
44517;DHT22;30223;17.182;-96.766;2023-02-28T15:15:56;22.20;43.00
44517;DHT22;30223;17.182;-96.766;2023-02-28T15:20:59;22.20;43.00
44517;DHT22;30223;17.182;-96.766;2023-02-28T15:23:28;22.30;43.10
44517;DHT22;30223;17.182;-96.766;2023-02-28T15:25:56;22.30;43.20
44517;DHT22;30223;17.182;-96.766;2023-02-28T15:28:23;22.30;43.20
44517;DHT22;30223;17.182;-96.766;2023-02-28T15:31:01;22.30;43.20
44517;DHT22;30223;17.182;-96.766;2023-02-28T15:33:31;22.30;43.30
44517;DHT22;30223;17.182;-96.766;2023-02-28T15:36:14;22.30;43.30
44517;DHT22;30223;17.182;-96.766;2023-02-28T15:38:43;22.30;43.30
44517;DHT22;30223;17.182;-96.766;2023-02-28T15:41:42;22.30;43.40
44517;DHT22;30223;17.182;-96.766;2023-02-28T15:44:27;22.30;43.40
44517;DHT22;30223;17.182;-96.766;2023-02-28T15:47:21;22.30;43.50
44517;DHT22;30223;17.182;-96.766;2023-02-28T15:52:28;22.40;43.60
44517;DHT22;30223;17.182;-96.766;2023-02-28T15:54:58;22.40;43.70
44517;DHT22;30223;17.182;-96.766;2023-02-28T15:57:27;22.40;43.70
44517;DHT22;30223;17.182;-96.766;2023-02-28T16:00:00;22.40;43.70
44517;DHT22;30223;17.182;-96.766;2023-02-28T16:02:37;22.40;43.70
44517;DHT22;30223;17.182;-96.766;2023-02-28T16:07:41;22.50;43.80
44517;DHT22;30223;17.182;-96.766;2023-02-28T16:10:11;22.50;43.90
44517;DHT22;30223;17.182;-96.766;2023-02-28T16:12:39;22.50;43.90
44517;DHT22;30223;17.182;-96.766;2023-02-28T16:15:27;22.50;43.90
44517;DHT22;30223;17.182;-96.766;2023-02-28T16:17:56;22.60;43.90
44517;DHT22;30223;17.182;-96.766;2023-02-28T16:20:25;22.60;44.00
44517;DHT22;30223;17.182;-96.766;2023-02-28T16:22:52;22.60;44.00
44517;DHT22;30223;17.182;-96.766;2023-02-28T16:25:25;22.60;43.90
44517;DHT22;30223;17.182;-96.766;2023-02-28T16:27:55;22.60;44.00
44517;DHT22;30223;17.182;-96.766;2023-02-28T16:30:28;22.60;44.10
44517;DHT22;30223;17.182;-96.766;2023-02-28T16:32:57;22.70;44.20
44517;DHT22;30223;17.182;-96.766;2023-02-28T16:35:24;22.70;44.20
44517;DHT22;30223;17.182;-96.766;2023-02-28T16:37:51;22.70;44.20
44517;DHT22;30223;17.182;-96.766;2023-02-28T16:40:21;22.80;44.30
44517;DHT22;30223;17.182;-96.766;2023-02-28T16:42:55;22.80;44.30
44517;DHT22;30223;17.182;-96.766;2023-02-28T16:45:28;22.80;44.30
44517;DHT22;30223;17.182;-96.766;2023-02-28T16:47:56;22.80;44.40
44517;DHT22;30223;17.182;-96.766;2023-02-28T16:50:30;22.80;44.40
44517;DHT22;30223;17.182;-96.766;2023-02-28T16:52:58;22.90;44.50
44517;DHT22;30223;17.182;-96.766;2023-02-28T16:55:26;22.90;44.50
44517;DHT22;30223;17.182;-96.766;2023-02-28T16:57:58;22.90;44.50
44517;DHT22;30223;17.182;-96.766;2023-02-28T17:00:26;22.90;44.60
44517;DHT22;30223;17.182;-96.766;2023-02-28T17:02:54;23.00;44.60
44517;DHT22;30223;17.182;-96.766;2023-02-28T17:05:21;23.00;44.60
44517;DHT22;30223;17.182;-96.766;2023-02-28T17:07:48;23.00;44.60
44517;DHT22;30223;17.182;-96.766;2023-02-28T17:10:21;23.00;44.60
44517;DHT22;30223;17.182;-96.766;2023-02-28T17:12:49;23.10;44.70
44517;DHT22;30223;17.182;-96.766;2023-02-28T17:15:17;23.10;44.70
44517;DHT22;30223;17.182;-96.766;2023-02-28T17:17:45;23.10;44.60
44517;DHT22;30223;17.182;-96.766;2023-02-28T17:20:22;23.10;44.50
44517;DHT22;30223;17.182;-96.766;2023-02-28T17:22:49;23.20;44.60
44517;DHT22;30223;17.182;-96.766;2023-02-28T17:25:17;23.20;44.40
44517;DHT22;30223;17.182;-96.766;2023-02-28T17:27:43;23.20;44.30
44517;DHT22;30223;17.182;-96.766;2023-02-28T17:30:22;23.30;44.40
44517;DHT22;30223;17.182;-96.766;2023-02-28T17:32:49;23.30;44.40
44517;DHT22;30223;17.182;-96.766;2023-02-28T17:35:16;23.30;44.30
44517;DHT22;30223;17.182;-96.766;2023-02-28T17:37:43;23.40;44.40
44517;DHT22;30223;17.182;-96.766;2023-02-28T17:40:21;23.40;44.30
44517;DHT22;30223;17.182;-96.766;2023-02-28T17:42:48;23.40;44.30
44517;DHT22;30223;17.182;-96.766;2023-02-28T17:45:15;23.40;44.30
44517;DHT22;30223;17.182;-96.766;2023-02-28T17:47:43;23.50;44.30
44517;DHT22;30223;17.182;-96.766;2023-02-28T17:50:16;23.50;44.20
44517;DHT22;30223;17.182;-96.766;2023-02-28T17:52:43;23.50;44.20
44517;DHT22;30223;17.182;-96.766;2023-02-28T17:55:10;23.50;44.10
44517;DHT22;30223;17.182;-96.766;2023-02-28T17:57:38;23.60;44.20